Time;durP1;ratioP1;P1;durP2;ratioP2;P2;SDS_P1;SDS_P2;PMS_P1;PMS_P2;Temp;Humidity;BMP_temperature;BMP_pressure;BME280_temperature;BME280_humidity;BME280_pressure;Samples;Min_cycle;Max_cycle;Signal;HPM_P1;HPM_P2
2022/01/29 00:01:19;;;;;;;15.48;8.07;;;4.10;87.40;;;;;;5018779;28;20558;-81
2022/01/29 00:03:44;;;;;;;16.25;7.28;;;4.10;87.50;;;;;;5055704;28;20033;-81
2022/01/29 00:06:10;;;;;;;16.58;7.88;;;4.10;87.50;;;;;;5003559;28;20053;-81
2022/01/29 00:08:35;;;;;;;16.08;7.53;;;4.10;87.50;;;;;;5023949;28;20071;-81
2022/01/29 00:11:08;;;;;;;13.30;7.57;;;4.10;87.60;;;;;;5030039;28;20025;-82
2022/01/29 00:13:34;;;;;;;17.90;7.90;;;4.20;87.60;;;;;;5026528;28;20030;-82
2022/01/29 00:16:00;;;;;;;17.55;8.98;;;4.20;87.70;;;;;;5053454;28;20056;-81
2022/01/29 00:18:26;;;;;;;14.77;8.35;;;4.20;87.60;;;;;;5023849;28;20064;-81
2022/01/29 00:20:51;;;;;;;15.95;8.52;;;4.20;87.60;;;;;;5028376;28;20039;-81
2022/01/29 00:23:17;;;;;;;16.38;8.75;;;4.20;87.60;;;;;;5027286;28;20029;-81
2022/01/29 00:25:42;;;;;;;17.98;9.07;;;4.20;87.70;;;;;;5020193;28;20550;-81
2022/01/29 00:28:08;;;;;;;16.45;8.55;;;4.30;87.80;;;;;;5010689;28;20029;-81
2022/01/29 00:30:41;;;;;;;14.82;8.52;;;4.20;87.80;;;;;;5058065;28;20036;-82
2022/01/29 00:33:07;;;;;;;15.13;7.95;;;4.30;87.80;;;;;;5021445;28;20043;-82
2022/01/29 00:35:32;;;;;;;13.70;7.43;;;4.30;87.90;;;;;;5025182;28;20029;-81
2022/01/29 00:37:58;;;;;;;16.25;8.05;;;4.30;87.90;;;;;;5025163;28;20047;-81
2022/01/29 00:40:24;;;;;;;13.60;7.63;;;4.30;88.00;;;;;;5016302;28;20086;-81
2022/01/29 00:42:49;;;;;;;14.38;8.43;;;4.30;87.90;;;;;;5001923;28;20072;-81
2022/01/29 00:45:15;;;;;;;15.75;8.32;;;4.40;88.00;;;;;;5000046;28;20037;-81
2022/01/29 00:47:41;;;;;;;15.50;7.90;;;4.40;88.00;;;;;;5008955;28;20064;-81
2022/01/29 00:50:07;;;;;;;13.63;8.18;;;4.30;88.00;;;;;;5011503;28;20043;-81
2022/01/29 00:52:33;;;;;;;14.68;7.40;;;4.40;88.10;;;;;;5007437;28;20844;-81
2022/01/29 00:54:58;;;;;;;14.82;7.97;;;4.40;88.10;;;;;;5026228;28;20033;-81
2022/01/29 00:57:28;;;;;;;15.13;8.20;;;4.40;88.10;;;;;;5020340;28;20041;-81
2022/01/29 00:59:53;;;;;;;15.43;7.25;;;4.40;88.10;;;;;;5004056;28;20029;-81
2022/01/29 01:02:19;;;;;;;14.15;7.25;;;4.40;88.10;;;;;;5018961;28;20043;-81
2022/01/29 01:04:44;;;;;;;14.43;7.63;;;4.50;88.10;;;;;;5016837;28;20025;-81
2022/01/29 01:07:10;;;;;;;12.35;7.43;;;4.40;88.10;;;;;;5042409;28;20430;-81
2022/01/29 01:09:36;;;;;;;12.90;7.18;;;4.50;88.10;;;;;;5031376;28;20036;-82
2022/01/29 01:12:02;;;;;;;14.90;7.95;;;4.50;88.00;;;;;;5035110;28;20454;-81
2022/01/29 01:14:28;;;;;;;12.10;6.85;;;4.50;88.00;;;;;;5006122;28;20042;-81
2022/01/29 01:16:53;;;;;;;10.30;5.82;;;4.50;88.00;;;;;;5028253;28;20044;-81
2022/01/29 01:19:19;;;;;;;13.57;7.30;;;4.50;88.00;;;;;;5014251;28;20104;-81
2022/01/29 01:21:45;;;;;;;11.43;6.88;;;4.50;88.00;;;;;;5025018;28;20036;-81
2022/01/29 01:24:10;;;;;;;10.63;6.45;;;4.50;87.90;;;;;;5037519;28;20120;-81
2022/01/29 01:26:36;;;;;;;12.63;6.43;;;4.50;87.90;;;;;;5030807;28;20606;-81
2022/01/29 01:29:01;;;;;;;11.38;6.05;;;4.60;88.00;;;;;;5012454;28;20048;-81
2022/01/29 01:31:27;;;;;;;12.60;6.65;;;4.60;87.90;;;;;;5019607;28;20048;-81
2022/01/29 01:33:52;;;;;;;14.38;6.53;;;4.60;87.90;;;;;;5032169;28;20041;-81
2022/01/29 01:36:22;;;;;;;12.18;6.43;;;4.60;87.80;;;;;;5045750;28;20342;-81
2022/01/29 01:39:01;;;;;;;13.15;6.38;;;4.60;87.90;;;;;;5021111;28;20435;-81
2022/01/29 01:41:28;;;;;;;12.93;6.57;;;4.60;87.80;;;;;;5030331;28;20033;-81
2022/01/29 01:44:00;;;;;;;14.13;7.03;;;4.60;87.80;;;;;;4991694;28;20589;-81
2022/01/29 01:46:28;;;;;;;14.05;6.65;;;4.60;87.80;;;;;;5020108;28;20039;-81
2022/01/29 01:48:54;;;;;;;11.88;6.80;;;4.60;87.80;;;;;;5039921;28;20052;-81
2022/01/29 01:51:19;;;;;;;11.60;6.32;;;4.60;87.80;;;;;;5021228;28;20118;-81
2022/01/29 01:53:45;;;;;;;13.10;6.60;;;4.60;87.80;;;;;;4990088;28;20041;-81
2022/01/29 01:56:10;;;;;;;13.30;6.97;;;4.60;87.70;;;;;;5009807;28;20037;-81
2022/01/29 01:58:36;;;;;;;11.57;6.32;;;4.60;87.70;;;;;;5017619;28;20029;-81
2022/01/29 02:01:01;;;;;;;12.50;6.80;;;4.70;87.80;;;;;;4990106;28;20037;-81
2022/01/29 02:03:27;;;;;;;14.18;6.65;;;4.70;87.80;;;;;;5030819;28;20078;-81
2022/01/29 02:05:53;;;;;;;11.85;6.35;;;4.60;87.70;;;;;;5027329;28;20044;-80
2022/01/29 02:08:18;;;;;;;11.48;5.85;;;4.60;87.70;;;;;;5028279;28;20404;-81
2022/01/29 02:10:48;;;;;;;12.20;6.55;;;4.70;87.70;;;;;;5012566;28;20037;-81
2022/01/29 02:13:14;;;;;;;12.82;6.53;;;4.70;87.70;;;;;;5040080;28;20119;-81
2022/01/29 02:15:39;;;;;;;11.00;6.07;;;4.60;87.70;;;;;;5023164;28;20510;-81
2022/01/29 02:18:05;;;;;;;9.32;6.00;;;4.60;87.70;;;;;;5030256;28;20090;-81
2022/01/29 02:20:32;;;;;;;12.20;6.00;;;4.60;87.70;;;;;;5031853;28;20102;-81
2022/01/29 02:22:58;;;;;;;10.40;6.03;;;4.60;87.80;;;;;;5031946;28;20029;-81
2022/01/29 02:25:44;;;;;;;11.50;6.03;;;4.70;87.70;;;;;;5019637;28;20059;-81
2022/01/29 02:28:17;;;;;;;12.18;5.43;;;4.60;87.70;;;;;;5044137;28;20027;-81
2022/01/29 02:30:44;;;;;;;9.75;5.60;;;4.60;87.70;;;;;;5006457;28;20029;-81
2022/01/29 02:33:12;;;;;;;10.82;5.78;;;4.60;87.70;;;;;;4987045;28;20025;-81
2022/01/29 02:35:42;;;;;;;10.05;5.30;;;4.60;87.80;;;;;;5038467;28;20029;-81
2022/01/29 02:38:08;;;;;;;13.30;6.30;;;4.60;87.80;;;;;;4982868;28;20055;-81
2022/01/29 02:40:38;;;;;;;13.68;5.68;;;4.60;87.80;;;;;;5032678;28;20068;-81
2022/01/29 02:43:14;;;;;;;10.88;5.88;;;4.60;87.80;;;;;;5012524;28;20234;-81
2022/01/29 02:45:42;;;;;;;11.50;5.35;;;4.60;87.80;;;;;;5032947;28;20060;-81
2022/01/29 02:48:07;;;;;;;10.15;5.15;;;4.70;87.80;;;;;;5017885;28;20402;-81
2022/01/29 02:50:33;;;;;;;10.60;5.32;;;4.60;87.80;;;;;;5043137;28;20116;-81
2022/01/29 02:52:59;;;;;;;10.77;5.72;;;4.60;87.80;;;;;;5035672;28;20047;-81
2022/01/29 02:55:24;;;;;;;8.45;4.57;;;4.70;87.90;;;;;;5004539;28;20039;-81
2022/01/29 02:57:50;;;;;;;9.07;5.13;;;4.60;87.80;;;;;;4993004;28;20511;-81
2022/01/29 03:00:15;;;;;;;9.73;5.05;;;4.60;87.80;;;;;;4986042;28;20033;-81
2022/01/29 03:02:41;;;;;;;12.95;5.85;;;4.70;87.90;;;;;;5021949;28;20064;-81
2022/01/29 03:05:07;;;;;;;8.98;5.32;;;4.60;87.90;;;;;;5029578;28;20037;-81
2022/01/29 03:07:32;;;;;;;10.88;5.57;;;4.60;87.90;;;;;;5024849;28;20048;-81
2022/01/29 03:09:58;;;;;;;6.90;4.63;;;4.70;87.90;;;;;;5033441;28;20025;-81
2022/01/29 03:12:23;;;;;;;7.80;4.82;;;4.70;87.90;;;;;;5010463;28;20507;-81
2022/01/29 03:14:49;;;;;;;10.93;5.60;;;4.70;87.90;;;;;;5029653;28;20063;-81
2022/01/29 03:17:14;;;;;;;10.27;5.25;;;4.70;87.90;;;;;;4991498;28;20491;-81
2022/01/29 03:19:40;;;;;;;12.07;5.80;;;4.70;87.90;;;;;;5031876;28;20029;-81
2022/01/29 03:22:05;;;;;;;8.85;4.60;;;4.70;88.00;;;;;;5004322;28;20036;-81
2022/01/29 03:24:31;;;;;;;10.68;5.15;;;4.70;87.90;;;;;;5038100;28;20052;-81
2022/01/29 03:26:56;;;;;;;10.38;5.22;;;4.70;88.00;;;;;;5052421;28;20064;-81
2022/01/29 03:29:22;;;;;;;9.55;5.32;;;4.70;88.00;;;;;;5001460;28;20041;-81
2022/01/29 03:31:47;;;;;;;9.00;4.82;;;4.70;88.00;;;;;;5021208;28;20060;-81
2022/01/29 03:34:13;;;;;;;8.43;4.47;;;4.70;88.00;;;;;;5022217;28;20502;-81
2022/01/29 03:36:38;;;;;;;10.13;5.40;;;4.70;88.10;;;;;;5002149;28;20036;-81
2022/01/29 03:39:04;;;;;;;9.95;5.55;;;4.70;88.10;;;;;;5034090;28;20041;-81
2022/01/29 03:41:30;;;;;;;11.38;5.75;;;4.70;88.00;;;;;;5001145;28;20032;-81
2022/01/29 03:44:01;;;;;;;10.77;4.80;;;4.70;88.10;;;;;;5035318;28;20025;-81
2022/01/29 03:46:26;;;;;;;8.30;4.78;;;4.70;88.10;;;;;;5022070;28;20033;-81
2022/01/29 03:48:52;;;;;;;9.00;5.10;;;4.70;88.10;;;;;;5031719;28;20064;-81
2022/01/29 03:51:17;;;;;;;12.38;5.97;;;4.70;88.10;;;;;;5030846;28;20562;-81
2022/01/29 03:53:43;;;;;;;7.93;4.68;;;4.70;88.10;;;;;;5015423;28;20589;-81
2022/01/29 03:56:10;;;;;;;12.52;5.50;;;4.70;88.10;;;;;;5011765;28;20054;-81
2022/01/29 03:58:35;;;;;;;9.40;5.28;;;4.70;88.10;;;;;;5038605;28;20025;-81
2022/01/29 04:01:01;;;;;;;12.80;5.82;;;4.70;88.10;;;;;;5016596;28;20098;-81
2022/01/29 04:03:26;;;;;;;11.57;5.45;;;4.70;88.20;;;;;;5032159;28;20811;-81
2022/01/29 04:05:52;;;;;;;11.38;5.47;;;4.70;88.10;;;;;;5032854;28;20036;-81
2022/01/29 04:08:18;;;;;;;11.73;5.97;;;4.70;88.10;;;;;;5052027;28;20454;-80
2022/01/29 04:10:44;;;;;;;10.98;5.28;;;4.70;88.20;;;;;;5017816;28;20025;-81
2022/01/29 04:13:12;;;;;;;6.80;4.30;;;4.60;88.10;;;;;;4999625;28;20079;-81
2022/01/29 04:15:37;;;;;;;9.48;5.15;;;4.70;88.20;;;;;;5049246;28;20099;-81
2022/01/29 04:18:03;;;;;;;9.77;5.15;;;4.70;88.20;;;;;;5020089;28;20614;-80
2022/01/29 04:20:28;;;;;;;8.98;4.90;;;4.70;88.20;;;;;;5030883;28;20610;-80
2022/01/29 04:22:54;;;;;;;10.48;5.55;;;4.70;88.20;;;;;;5010480;28;20036;-81
2022/01/29 04:25:20;;;;;;;9.35;5.38;;;4.70;88.20;;;;;;5024544;28;20033;-81
2022/01/29 04:27:47;;;;;;;8.40;4.93;;;4.70;88.20;;;;;;5024831;28;20032;-81
2022/01/29 04:30:27;;;;;;;10.20;5.65;;;4.60;88.20;;;;;;5024173;28;20033;-81
2022/01/29 04:35:19;;;;;;;12.65;5.80;;;4.70;88.20;;;;;;5038283;28;20399;-81
2022/01/29 04:37:46;;;;;;;8.90;5.03;;;4.70;88.30;;;;;;5008111;28;20171;-81
2022/01/29 04:40:11;;;;;;;11.00;5.72;;;4.70;88.40;;;;;;4991609;28;20807;-81
2022/01/29 04:42:37;;;;;;;8.65;4.82;;;4.70;88.40;;;;;;5047665;28;20116;-81
2022/01/29 04:45:03;;;;;;;9.85;5.57;;;4.70;88.40;;;;;;5029985;28;20596;-81
2022/01/29 04:47:28;;;;;;;12.38;5.82;;;4.70;88.40;;;;;;5020173;28;20020;-81
2022/01/29 04:49:54;;;;;;;8.98;5.28;;;4.70;88.40;;;;;;5027264;28;20029;-81
2022/01/29 04:52:19;;;;;;;10.52;5.72;;;4.70;88.40;;;;;;5015183;28;20044;-81
2022/01/29 04:54:45;;;;;;;8.55;5.32;;;4.70;88.50;;;;;;5028248;28;20037;-81
2022/01/29 04:57:11;;;;;;;11.60;6.03;;;4.70;89.20;;;;;;5031500;28;20061;-81
2022/01/29 04:59:36;;;;;;;8.32;5.00;;;4.70;88.50;;;;;;5036866;28;20043;-81
2022/01/29 05:02:02;;;;;;;12.93;5.80;;;4.70;88.50;;;;;;5030563;28;20400;-81
2022/01/29 05:04:27;;;;;;;11.27;6.18;;;4.70;88.50;;;;;;5025740;28;20064;-81
2022/01/29 05:06:53;;;;;;;12.65;6.40;;;4.70;88.60;;;;;;5033087;28;20033;-81
2022/01/29 05:09:18;;;;;;;10.60;6.07;;;4.70;88.60;;;;;;5026374;28;20037;-81
2022/01/29 05:11:47;;;;;;;14.02;6.20;;;4.70;88.60;;;;;;5041726;28;20070;-81
2022/01/29 05:14:22;;;;;;;13.23;6.00;;;4.70;88.60;;;;;;5030428;28;20074;-81
2022/01/29 05:27:45;;;;;;;10.80;6.13;;;4.70;88.50;;;;;;5005534;28;20052;-81
2022/01/29 05:30:11;;;;;;;10.80;6.28;;;4.70;88.50;;;;;;5006060;28;20393;-81
2022/01/29 05:32:36;;;;;;;12.18;6.38;;;4.70;88.50;;;;;;5012214;28;20025;-81
2022/01/29 05:35:02;;;;;;;11.35;6.28;;;4.80;88.70;;;;;;4998765;28;20165;-81
2022/01/29 05:37:27;;;;;;;14.65;6.70;;;4.70;88.50;;;;;;5004381;28;20048;-81
2022/01/29 05:39:53;;;;;;;14.40;6.95;;;4.70;88.50;;;;;;5019053;28;20881;-81
2022/01/29 05:42:18;;;;;;;11.55;5.97;;;4.70;88.60;;;;;;5025270;28;20033;-81
2022/01/29 05:44:44;;;;;;;13.85;6.05;;;4.70;88.60;;;;;;5002605;28;20033;-81
2022/01/29 05:47:09;;;;;;;11.35;5.63;;;4.70;88.70;;;;;;5015515;28;20032;-81
2022/01/29 05:49:35;;;;;;;14.75;6.57;;;4.70;88.60;;;;;;5018790;28;20056;-80
2022/01/29 05:52:00;;;;;;;12.40;6.63;;;4.70;88.70;;;;;;5026465;28;20036;-80
2022/01/29 05:54:26;;;;;;;14.25;6.13;;;4.70;88.70;;;;;;5018924;28;20040;-81
2022/01/29 05:56:51;;;;;;;14.10;6.40;;;4.70;88.70;;;;;;5030696;28;20045;-80
2022/01/29 05:59:17;;;;;;;9.75;6.05;;;4.70;88.70;;;;;;5016925;28;20041;-80
2022/01/29 06:01:42;;;;;;;11.48;6.45;;;4.70;88.70;;;;;;5017426;28;20048;-81
2022/01/29 06:04:08;;;;;;;13.70;6.97;;;4.70;88.80;;;;;;5034710;28;20395;-80
2022/01/29 06:06:34;;;;;;;10.18;5.75;;;4.70;88.80;;;;;;4990062;28;20483;-81
2022/01/29 06:09:04;;;;;;;12.20;6.32;;;4.70;88.80;;;;;;5000639;28;20396;-81
2022/01/29 06:11:30;;;;;;;12.07;6.28;;;4.70;88.80;;;;;;5017535;28;20072;-81
2022/01/29 06:13:56;;;;;;;11.65;6.68;;;4.70;88.80;;;;;;4978131;28;20045;-81
2022/01/29 06:16:21;;;;;;;13.55;5.95;;;4.70;88.80;;;;;;5005537;28;20033;-81
2022/01/29 06:18:47;;;;;;;10.73;5.55;;;4.70;88.90;;;;;;5005697;28;20041;-81
2022/01/29 06:21:14;;;;;;;12.32;7.05;;;4.80;89.00;;;;;;5013034;28;20097;-82
2022/01/29 06:23:40;;;;;;;12.52;6.70;;;4.70;88.90;;;;;;5000668;28;20032;-81
2022/01/29 06:26:09;;;;;;;13.35;6.70;;;4.70;88.90;;;;;;5005901;28;20180;-82
2022/01/29 06:28:35;;;;;;;14.38;6.40;;;4.70;89.00;;;;;;5039062;28;20033;-81
2022/01/29 06:31:01;;;;;;;11.70;6.22;;;4.70;89.00;;;;;;4977890;28;20029;-82
2022/01/29 06:33:27;;;;;;;9.85;6.05;;;4.70;89.00;;;;;;5016568;28;20033;-82
2022/01/29 06:35:53;;;;;;;13.40;6.75;;;4.70;89.80;;;;;;5028465;28;20037;-82
2022/01/29 06:38:18;;;;;;;10.07;5.68;;;4.70;89.00;;;;;;4974195;28;20096;-82
2022/01/29 06:40:44;;;;;;;13.32;6.38;;;4.70;89.10;;;;;;4999685;28;21808;-81
2022/01/29 06:43:10;;;;;;;14.45;6.35;;;4.70;89.80;;;;;;5003469;28;20018;-81
2022/01/29 06:45:36;;;;;;;10.30;6.30;;;4.70;89.10;;;;;;5011955;28;20480;-80
2022/01/29 06:48:02;;;;;;;12.38;6.38;;;4.70;89.10;;;;;;4996207;28;20025;-81
2022/01/29 06:50:28;;;;;;;11.13;6.00;;;4.70;89.20;;;;;;5028257;28;20060;-80
2022/01/29 06:52:54;;;;;;;8.50;5.30;;;4.70;89.20;;;;;;4995760;28;20033;-81
2022/01/29 06:55:20;;;;;;;11.60;5.85;;;4.70;89.20;;;;;;5026093;28;20037;-80
2022/01/29 06:57:46;;;;;;;12.55;6.07;;;4.80;89.30;;;;;;5015361;28;20684;-81
2022/01/29 07:00:12;;;;;;;13.05;6.18;;;4.70;89.20;;;;;;5017234;28;20034;-81
2022/01/29 07:02:37;;;;;;;9.95;6.07;;;4.70;89.30;;;;;;5031197;28;20576;-81
2022/01/29 07:05:04;;;;;;;10.38;5.65;;;4.70;89.20;;;;;;5034461;28;20032;-81
2022/01/29 07:07:29;;;;;;;13.10;6.10;;;4.70;89.30;;;;;;4999681;28;20028;-81
2022/01/29 07:09:55;;;;;;;12.68;6.18;;;4.70;89.30;;;;;;5054769;28;20055;-81
2022/01/29 07:12:21;;;;;;;9.60;5.78;;;4.70;89.30;;;;;;5015890;28;20026;-80
2022/01/29 07:14:49;;;;;;;10.80;5.93;;;4.70;89.30;;;;;;5006689;28;20048;-80
2022/01/29 07:17:17;;;;;;;11.40;6.18;;;4.70;89.30;;;;;;4996188;28;20111;-81
2022/01/29 07:19:44;;;;;;;10.13;5.30;;;4.70;89.40;;;;;;5022494;28;20072;-81
2022/01/29 07:22:09;;;;;;;11.15;6.30;;;4.70;89.50;;;;;;5008177;28;20041;-81
2022/01/29 07:24:35;;;;;;;11.48;5.57;;;4.60;89.40;;;;;;5052740;28;20490;-81
2022/01/29 07:27:01;;;;;;;9.60;5.50;;;4.70;89.60;;;;;;5028562;28;20669;-81
2022/01/29 07:29:27;;;;;;;11.23;5.60;;;4.60;89.60;;;;;;5014838;28;20033;-80
2022/01/29 07:31:52;;;;;;;9.90;5.50;;;4.60;89.70;;;;;;5025051;28;20029;-81
2022/01/29 07:34:20;;;;;;;8.30;5.15;;;4.70;89.70;;;;;;5011283;28;20243;-81
2022/01/29 07:36:48;;;;;;;10.77;5.47;;;4.60;89.70;;;;;;5005583;28;20067;-81
2022/01/29 07:39:14;;;;;;;12.02;5.80;;;4.60;89.70;;;;;;5019365;28;20045;-82
2022/01/29 07:41:39;;;;;;;11.40;5.85;;;4.60;89.70;;;;;;5034523;28;20037;-86
2022/01/29 07:44:05;;;;;;;10.57;5.63;;;4.60;89.70;;;;;;4993391;28;20044;-81
2022/01/29 07:46:31;;;;;;;12.05;6.05;;;4.70;89.90;;;;;;5036194;28;20037;-82
2022/01/29 07:48:56;;;;;;;12.07;5.90;;;4.70;89.90;;;;;;5020309;28;20045;-80
2022/01/29 07:51:22;;;;;;;14.70;7.57;;;4.70;90.00;;;;;;5034128;28;21088;-81
2022/01/29 07:53:47;;;;;;;16.85;7.65;;;4.70;90.00;;;;;;5048278;28;20033;-81
2022/01/29 07:56:13;;;;;;;10.43;6.55;;;4.70;90.00;;;;;;5028794;28;20041;-80
2022/01/29 07:58:38;;;;;;;11.02;5.82;;;4.70;90.00;;;;;;5011100;28;20025;-81
2022/01/29 08:01:04;;;;;;;19.95;9.00;;;4.70;90.00;;;;;;5021050;28;20031;-80
2022/01/29 08:03:29;;;;;;;19.27;8.27;;;4.70;90.00;;;;;;4977694;28;20033;-79
2022/01/29 08:05:55;;;;;;;9.77;5.72;;;4.70;90.00;;;;;;4988398;28;20395;-79
2022/01/29 08:08:20;;;;;;;11.93;6.38;;;4.70;90.00;;;;;;5004012;28;20041;-79
2022/01/29 08:10:46;;;;;;;8.27;5.13;;;4.70;90.00;;;;;;5008287;28;20059;-79
2022/01/29 08:13:12;;;;;;;11.68;6.40;;;4.70;90.00;;;;;;5016476;28;20137;-79
2022/01/29 08:15:37;;;;;;;9.10;5.25;;;4.70;90.00;;;;;;5031485;28;20025;-81
2022/01/29 08:18:03;;;;;;;12.30;7.28;;;4.80;90.10;;;;;;5023866;28;20034;-79
2022/01/29 08:20:29;;;;;;;12.57;5.68;;;4.70;90.10;;;;;;5035934;28;20067;-79
2022/01/29 08:22:54;;;;;;;12.02;5.63;;;4.70;90.10;;;;;;5010906;28;20663;-79
2022/01/29 08:25:20;;;;;;;13.55;7.30;;;4.70;90.10;;;;;;5028104;28;20119;-80
2022/01/29 08:27:45;;;;;;;13.80;7.18;;;4.80;90.10;;;;;;5021247;28;20032;-79
2022/01/29 08:30:11;;;;;;;12.18;6.25;;;4.80;90.20;;;;;;5041992;28;20041;-79
2022/01/29 08:32:41;;;;;;;10.88;6.18;;;4.80;90.20;;;;;;5016145;28;20040;-80
2022/01/29 08:35:09;;;;;;;10.95;6.10;;;4.80;90.20;;;;;;5028164;28;20388;-80
2022/01/29 08:37:34;;;;;;;7.60;5.10;;;4.80;90.20;;;;;;5027394;28;20518;-79
2022/01/29 08:40:00;;;;;;;14.38;7.47;;;4.80;90.60;;;;;;4994749;28;20083;-80
2022/01/29 08:42:25;;;;;;;9.55;5.82;;;4.80;90.20;;;;;;5009468;28;20037;-80
2022/01/29 08:44:52;;;;;;;9.80;4.55;;;4.80;90.20;;;;;;5021340;28;20056;-80
2022/01/29 08:47:17;;;;;;;10.13;4.80;;;4.90;90.30;;;;;;5011514;28;20120;-80
2022/01/29 08:49:43;;;;;;;9.23;5.13;;;4.90;90.30;;;;;;4988786;28;20116;-81
2022/01/29 08:52:08;;;;;;;8.55;4.65;;;4.90;90.30;;;;;;5031335;28;20116;-81
2022/01/29 08:54:34;;;;;;;8.02;4.20;;;4.90;90.30;;;;;;4992726;28;20036;-81
2022/01/29 08:56:59;;;;;;;8.95;5.13;;;4.90;90.30;;;;;;5027456;28;20503;-80
2022/01/29 08:59:25;;;;;;;8.40;4.70;;;4.90;90.30;;;;;;5001549;28;20064;-80
2022/01/29 09:01:50;;;;;;;9.77;4.68;;;4.90;90.30;;;;;;4973819;28;20048;-80
2022/01/29 09:04:16;;;;;;;10.90;5.80;;;4.90;90.30;;;;;;5015915;28;20029;-80
2022/01/29 09:06:41;;;;;;;9.90;6.15;;;5.00;90.40;;;;;;5031957;28;20747;-80
2022/01/29 09:09:07;;;;;;;9.02;4.82;;;5.00;90.40;;;;;;5026270;28;20041;-80
2022/01/29 09:11:34;;;;;;;9.13;5.22;;;5.00;90.40;;;;;;4996697;28;20037;-80
2022/01/29 09:13:59;;;;;;;7.80;3.75;;;5.00;90.40;;;;;;5024032;28;20033;-80
2022/01/29 09:16:25;;;;;;;7.68;4.28;;;5.00;90.40;;;;;;4996754;28;20525;-80
2022/01/29 09:18:50;;;;;;;6.65;3.60;;;5.10;90.40;;;;;;5005337;28;20044;-80
2022/01/29 09:21:16;;;;;;;5.32;3.67;;;5.10;90.40;;;;;;5014024;28;20032;-80
2022/01/29 09:23:41;;;;;;;6.90;3.38;;;5.10;90.40;;;;;;5013642;28;20037;-80
2022/01/29 09:26:07;;;;;;;5.82;3.33;;;5.10;90.40;;;;;;5011305;28;20036;-80
2022/01/29 09:28:32;;;;;;;7.32;4.00;;;5.10;90.40;;;;;;5012376;28;20037;-80
2022/01/29 09:30:58;;;;;;;5.30;3.38;;;5.20;90.40;;;;;;5029844;28;20029;-80
2022/01/29 09:33:23;;;;;;;5.20;3.42;;;5.20;90.50;;;;;;5012662;28;20033;-80
2022/01/29 09:35:50;;;;;;;12.38;6.28;;;5.20;90.50;;;;;;5018605;28;20098;-80
2022/01/29 09:38:15;;;;;;;4.65;3.40;;;5.20;90.40;;;;;;5007373;28;20072;-79
2022/01/29 09:40:41;;;;;;;6.28;3.10;;;5.30;90.40;;;;;;5016007;28;20068;-80
2022/01/29 09:43:09;;;;;;;4.28;2.60;;;5.30;90.40;;;;;;5014317;28;20033;-80
2022/01/29 09:45:34;;;;;;;6.50;3.30;;;5.30;90.40;;;;;;5024447;28;20119;-80
2022/01/29 09:48:03;;;;;;;3.47;2.75;;;5.40;90.40;;;;;;5022747;28;20041;-80
2022/01/29 09:50:36;;;;;;;4.15;2.83;;;5.40;90.40;;;;;;5007622;28;20461;-80
2022/01/29 09:53:02;;;;;;;3.70;2.63;;;5.40;90.40;;;;;;5022848;28;20548;-80
2022/01/29 09:55:29;;;;;;;3.88;2.40;;;5.40;90.40;;;;;;5027848;28;20040;-80
2022/01/29 09:57:54;;;;;;;3.50;2.40;;;5.50;90.40;;;;;;5015368;28;20042;-80
2022/01/29 10:00:20;;;;;;;2.72;2.22;;;5.50;90.40;;;;;;5027363;28;20052;-80
2022/01/29 10:03:11;;;;;;;4.57;2.50;;;5.50;90.40;;;;;;5026597;28;20025;-80
2022/01/29 10:05:37;;;;;;;3.53;2.30;;;5.50;90.40;;;;;;5031189;28;20487;-80
2022/01/29 10:08:04;;;;;;;3.03;2.30;;;5.60;90.40;;;;;;5024446;28;20044;-80
2022/01/29 10:10:29;;;;;;;4.07;2.67;;;5.60;90.30;;;;;;5026895;28;20059;-80
2022/01/29 10:12:55;;;;;;;3.60;2.35;;;5.60;90.30;;;;;;5004545;28;20026;-80
2022/01/29 10:15:23;;;;;;;3.80;2.70;;;5.60;90.30;;;;;;5023754;28;20040;-80
2022/01/29 10:17:55;;;;;;;3.10;2.15;;;5.60;90.30;;;;;;5010148;28;20072;-80
2022/01/29 10:20:22;;;;;;;3.63;2.38;;;5.70;90.30;;;;;;5014859;28;20113;-80
2022/01/29 10:22:49;;;;;;;4.78;2.75;;;5.70;90.30;;;;;;5029734;28;20048;-80
2022/01/29 10:25:20;;;;;;;3.58;2.40;;;5.70;90.20;;;;;;5008922;28;20040;-80
2022/01/29 10:28:05;;;;;;;3.03;2.30;;;5.70;90.20;;;;;;5028347;28;20498;-81
2022/01/29 10:30:31;;;;;;;4.35;2.53;;;5.80;90.20;;;;;;5016963;28;20087;-80
2022/01/29 10:33:18;;;;;;;4.15;2.00;;;5.80;90.20;;;;;;5030999;28;20243;-80
2022/01/29 10:35:44;;;;;;;2.78;2.20;;;5.80;90.10;;;;;;5028371;28;20025;-80
2022/01/29 10:38:09;;;;;;;3.05;2.00;;;5.80;90.10;;;;;;5000206;28;20037;-80
2022/01/29 10:40:35;;;;;;;2.28;2.05;;;5.90;90.10;;;;;;5029019;28;20036;-80
2022/01/29 10:43:04;;;;;;;2.80;1.95;;;5.90;90.10;;;;;;5017061;28;20025;-80
2022/01/29 10:45:34;;;;;;;2.72;2.10;;;5.90;90.00;;;;;;5018185;28;20675;-80
2022/01/29 10:47:59;;;;;;;4.93;2.33;;;5.90;90.00;;;;;;5031043;28;20041;-82
2022/01/29 10:50:25;;;;;;;3.20;2.05;;;5.90;90.00;;;;;;5032846;28;20068;-82
2022/01/29 10:52:51;;;;;;;2.85;2.05;;;5.90;90.00;;;;;;5014790;28;20032;-82
2022/01/29 10:55:16;;;;;;;2.63;1.75;;;5.90;90.00;;;;;;5019252;28;20041;-83
2022/01/29 10:57:46;;;;;;;5.28;2.25;;;6.00;90.00;;;;;;5009109;28;20032;-82
2022/01/29 11:00:21;;;;;;;3.35;2.42;;;6.00;90.00;;;;;;5023280;28;20390;-82
2022/01/29 11:02:46;;;;;;;2.38;1.92;;;6.00;90.00;;;;;;5006463;28;20118;-83
2022/01/29 11:05:13;;;;;;;3.83;2.17;;;6.00;89.90;;;;;;4984391;28;20098;-82
2022/01/29 11:07:39;;;;;;;2.92;1.83;;;6.00;89.80;;;;;;5026986;28;20033;-82
2022/01/29 11:10:06;;;;;;;2.97;2.13;;;6.00;89.80;;;;;;4981785;28;20025;-83
2022/01/29 11:12:33;;;;;;;3.13;2.35;;;6.10;89.90;;;;;;5027126;28;21922;-81
2022/01/29 11:15:00;;;;;;;2.55;1.95;;;6.10;89.70;;;;;;5026735;28;20044;-82
2022/01/29 11:17:26;;;;;;;2.25;2.00;;;6.10;89.70;;;;;;5014488;28;20059;-82
2022/01/29 11:19:52;;;;;;;3.65;1.88;;;6.10;89.70;;;;;;5038843;28;20044;-84
2022/01/29 11:22:40;;;;;;;3.70;1.83;;;6.10;89.70;;;;;;5033651;28;20037;-83
2022/01/29 11:25:08;;;;;;;2.42;1.70;;;6.10;89.60;;;;;;5030392;28;20037;-82
2022/01/29 11:27:37;;;;;;;3.78;2.00;;;6.10;89.60;;;;;;5028883;28;20028;-80
2022/01/29 11:30:10;;;;;;;2.35;1.65;;;6.10;89.50;;;;;;5013808;28;20033;-80
2022/01/29 11:32:39;;;;;;;2.28;1.65;;;6.10;89.40;;;;;;5018015;28;20155;-80
2022/01/29 11:35:26;;;;;;;1.92;1.63;;;6.10;89.40;;;;;;5034382;28;20653;-80
2022/01/29 11:38:04;;;;;;;1.42;1.25;;;6.10;89.30;;;;;;5010334;28;20573;-81
2022/01/29 11:40:37;;;;;;;2.05;1.45;;;6.20;89.30;;;;;;5048804;28;20379;-82
2022/01/29 11:43:09;;;;;;;2.90;1.80;;;6.10;89.20;;;;;;5026176;28;20052;-82
2022/01/29 11:46:07;;;;;;;3.42;2.55;;;6.20;89.30;;;;;;5024632;28;20067;-82
2022/01/29 11:48:39;;;;;;;2.72;1.45;;;6.20;89.20;;;;;;5030480;28;20071;-82
2022/01/29 11:51:08;;;;;;;3.38;2.50;;;6.20;89.20;;;;;;5044095;28;20338;-82
2022/01/29 11:53:49;;;;;;;3.00;1.80;;;6.20;89.20;;;;;;5014779;28;20079;-82
2022/01/29 11:56:29;;;;;;;2.10;1.58;;;6.30;89.20;;;;;;5045019;28;20037;-81
2022/01/29 11:59:17;;;;;;;1.98;1.25;;;6.30;89.10;;;;;;5046464;28;20047;-81
2022/01/29 12:01:42;;;;;;;1.80;1.38;;;6.30;89.00;;;;;;5025542;28;20025;-81
2022/01/29 12:04:08;;;;;;;2.17;1.98;;;6.30;89.00;;;;;;5023882;28;20038;-81
2022/01/29 12:06:38;;;;;;;2.40;1.85;;;6.30;88.90;;;;;;5016376;28;20036;-81
2022/01/29 12:09:25;;;;;;;3.00;2.13;;;6.30;88.90;;;;;;4995810;28;20070;-82
2022/01/29 12:12:29;;;;;;;1.90;1.70;;;6.30;88.80;;;;;;5012417;28;20255;-82
2022/01/29 12:15:18;;;;;;;4.90;2.80;;;6.30;88.80;;;;;;4942461;28;20034;-81
2022/01/29 12:17:50;;;;;;;2.97;1.60;;;6.40;88.90;;;;;;4942316;28;20092;-81
2022/01/29 12:20:20;;;;;;;3.88;2.28;;;6.40;88.80;;;;;;5016450;28;20110;-81
2022/01/29 12:22:46;;;;;;;2.50;1.77;;;6.40;88.80;;;;;;5034890;28;20062;-82
2022/01/29 12:25:13;;;;;;;2.92;2.38;;;6.40;88.80;;;;;;4994372;28;20029;-82
2022/01/29 12:27:49;;;;;;;3.30;2.55;;;6.40;88.80;;;;;;5029835;28;20503;-81
2022/01/29 12:30:25;;;;;;;2.25;2.00;;;6.50;88.80;;;;;;5028678;28;20025;-80
2022/01/29 12:32:54;;;;;;;2.83;2.42;;;6.50;88.70;;;;;;4998605;28;20098;-80
2022/01/29 12:35:38;;;;;;;1.45;1.35;;;6.50;88.70;;;;;;5028298;28;20483;-82
2022/01/29 12:38:05;;;;;;;3.47;2.50;;;6.50;88.60;;;;;;4984315;28;20125;-82
2022/01/29 12:40:36;;;;;;;2.10;1.55;;;6.50;88.70;;;;;;5034265;28;20121;-82
2022/01/29 12:43:10;;;;;;;3.83;2.40;;;6.50;88.70;;;;;;5005750;28;20032;-82
2022/01/29 12:45:37;;;;;;;2.78;1.77;;;6.50;88.70;;;;;;5021617;28;20032;-82
2022/01/29 12:48:09;;;;;;;3.72;2.30;;;6.50;88.70;;;;;;5051070;28;20032;-81
2022/01/29 12:50:35;;;;;;;4.07;2.45;;;6.50;88.70;;;;;;5035264;28;20024;-81
2022/01/29 12:53:08;;;;;;;2.35;1.80;;;6.50;88.70;;;;;;4999099;28;20090;-82
2022/01/29 12:55:34;;;;;;;2.95;2.28;;;6.50;88.60;;;;;;5022795;28;20037;-82
2022/01/29 12:57:59;;;;;;;2.58;1.67;;;6.50;88.60;;;;;;5015100;28;20035;-82
2022/01/29 13:00:25;;;;;;;2.97;1.92;;;6.50;88.60;;;;;;4989962;28;20044;-84
2022/01/29 13:02:50;;;;;;;2.22;1.55;;;6.50;88.60;;;;;;5018080;28;20037;-83
2022/01/29 13:05:16;;;;;;;1.95;1.55;;;6.50;88.60;;;;;;5024707;28;20036;-83